Poy Sippi, Wisconsin
Current Conditions -  °F | °C
As of 12:15 AM on Monday 22 Dec 2014 (Local Time) from KPCZ Reporting Station
Overcast Overcast  
Wind Chill: 30°   Ceiling: 1500
Heat Index: 37°   Visibility: 7mi
Dew Point: 31°   Wind: 9mph
Humidity: 80%   Direction: 160°SSE
Pressure: 29.93"   Gusts: NA
Location:  44.14°N, 89°W
Report Text: KPCZ 220615Z AUTO 16008KT 7SM OVC015 03/00 A2993 RMK AO2 T00261005
Loading
Personal Weather Stations






























Interactive Weather Map New forecast layout! Learn more

10-Day Weather Forecast

Advertisements
Track Severe Weather on mobile